Terminal Aerodrome Forecast
Issued by NWS Albany, NY

Home | Current Version | Previous Version | Text Only | Print | Product List | Glossary On
Versions: 1 2 3 4 5 6 7 8 9 10 11 12 13 14 15 16 17 18 19 20 21 22 23 24
433
FTUS41 KALY 192333
TAFALB
TAF
KALB 192333Z 2000/2024 20005KT P6SM BKN200
     FM200600 20005KT P6SM BKN200 WS020/26040KT
     FM201400 25012G18KT P6SM BKN150=

USA.gov is the U.S. government's official web portal to all federal, state and local government web resources and services.